sensor_id;sensor_type;location;lat;lon;timestamp;pressure;altitude;pressure_sealevel;temperature;humidity
39051;BME280;24805;55.852;37.644;2022-12-07T00:02:12;100536.34;;;-6.17;43.00
39051;BME280;24805;55.852;37.644;2022-12-07T00:07:14;100545.00;;;-6.18;43.16
39051;BME280;24805;55.852;37.644;2022-12-07T00:12:16;100552.25;;;-6.30;43.11
39051;BME280;24805;55.852;37.644;2022-12-07T00:17:18;100547.06;;;-6.30;43.51
39051;BME280;24805;55.852;37.644;2022-12-07T00:22:20;100538.59;;;-6.35;43.27
39051;BME280;24805;55.852;37.644;2022-12-07T00:27:22;100550.69;;;-6.35;43.52
39051;BME280;24805;55.852;37.644;2022-12-07T00:32:26;100535.56;;;-6.47;43.44
39051;BME280;24805;55.852;37.644;2022-12-07T00:37:28;100531.19;;;-6.45;43.52
39051;BME280;24805;55.852;37.644;2022-12-07T00:42:30;100528.88;;;-6.54;43.47
39051;BME280;24805;55.852;37.644;2022-12-07T00:47:32;100530.81;;;-6.61;43.65
39051;BME280;24805;55.852;37.644;2022-12-07T00:52:34;100535.13;;;-6.62;43.05
39051;BME280;24805;55.852;37.644;2022-12-07T00:57:36;100542.06;;;-6.64;43.53
39051;BME280;24805;55.852;37.644;2022-12-07T01:02:38;100541.44;;;-6.72;43.46
39051;BME280;24805;55.852;37.644;2022-12-07T01:07:40;100566.41;;;-6.72;43.68
39051;BME280;24805;55.852;37.644;2022-12-07T01:12:42;100539.84;;;-6.76;42.83
39051;BME280;24805;55.852;37.644;2022-12-07T01:17:45;100545.75;;;-6.72;43.37
39051;BME280;24805;55.852;37.644;2022-12-07T01:22:47;100541.00;;;-6.86;43.37
39051;BME280;24805;55.852;37.644;2022-12-07T01:27:49;100521.78;;;-7.05;43.30
39051;BME280;24805;55.852;37.644;2022-12-07T01:32:51;100562.38;;;-6.81;43.32
39051;BME280;24805;55.852;37.644;2022-12-07T01:37:53;100543.53;;;-6.84;43.87
39051;BME280;24805;55.852;37.644;2022-12-07T01:42:55;100538.34;;;-6.83;43.33
39051;BME280;24805;55.852;37.644;2022-12-07T01:47:57;100529.03;;;-6.88;43.65
39051;BME280;24805;55.852;37.644;2022-12-07T01:53:02;100509.44;;;-6.96;43.41
39051;BME280;24805;55.852;37.644;2022-12-07T01:58:06;100512.88;;;-6.95;43.09
39051;BME280;24805;55.852;37.644;2022-12-07T02:08:14;100532.56;;;-6.92;44.02
39051;BME280;24805;55.852;37.644;2022-12-07T02:13:24;100523.09;;;-6.92;43.73
39051;BME280;24805;55.852;37.644;2022-12-07T02:24:21;100519.06;;;-7.01;43.84
39051;BME280;24805;55.852;37.644;2022-12-07T02:29:46;100522.63;;;-7.05;44.08
39051;BME280;24805;55.852;37.644;2022-12-07T02:35:03;100481.19;;;-7.30;44.35
39051;BME280;24805;55.852;37.644;2022-12-07T02:40:17;100508.16;;;-7.10;44.24
39051;BME280;24805;55.852;37.644;2022-12-07T02:45:21;100512.50;;;-7.12;44.20
39051;BME280;24805;55.852;37.644;2022-12-07T02:50:24;100474.41;;;-7.34;44.44
39051;BME280;24805;55.852;37.644;2022-12-07T02:55:34;100519.38;;;-7.13;43.41
39051;BME280;24805;55.852;37.644;2022-12-07T03:01:04;100514.31;;;-7.16;43.95
39051;BME280;24805;55.852;37.644;2022-12-07T03:06:15;100507.66;;;-7.23;44.01
39051;BME280;24805;55.852;37.644;2022-12-07T03:11:47;100504.06;;;-7.19;44.01
39051;BME280;24805;55.852;37.644;2022-12-07T03:17:22;100505.72;;;-7.16;44.78
39051;BME280;24805;55.852;37.644;2022-12-07T03:22:23;100518.66;;;-7.18;43.89
39051;BME280;24805;55.852;37.644;2022-12-07T03:27:30;100502.47;;;-7.21;43.94
39051;BME280;24805;55.852;37.644;2022-12-07T03:32:44;100501.81;;;-7.30;45.04
39051;BME280;24805;55.852;37.644;2022-12-07T03:43:05;100507.09;;;-7.34;44.63
39051;BME280;24805;55.852;37.644;2022-12-07T03:48:20;100495.13;;;-7.37;45.35
39051;BME280;24805;55.852;37.644;2022-12-07T03:53:33;100506.47;;;-7.42;45.25
39051;BME280;24805;55.852;37.644;2022-12-07T03:58:38;100498.84;;;-7.47;44.81
39051;BME280;24805;55.852;37.644;2022-12-07T04:03:41;100500.00;;;-7.58;45.73
39051;BME280;24805;55.852;37.644;2022-12-07T04:08:43;100498.38;;;-7.61;45.52
39051;BME280;24805;55.852;37.644;2022-12-07T04:13:45;100504.47;;;-7.65;46.31
39051;BME280;24805;55.852;37.644;2022-12-07T04:19:06;100497.53;;;-7.61;45.79
39051;BME280;24805;55.852;37.644;2022-12-07T04:24:08;100469.00;;;-7.88;46.17
39051;BME280;24805;55.852;37.644;2022-12-07T04:29:10;100459.91;;;-8.01;46.94
39051;BME280;24805;55.852;37.644;2022-12-07T04:34:13;100520.34;;;-7.80;46.74
39051;BME280;24805;55.852;37.644;2022-12-07T04:39:24;100485.22;;;-7.84;47.13
39051;BME280;24805;55.852;37.644;2022-12-07T04:44:28;100486.88;;;-7.82;47.18
39051;BME280;24805;55.852;37.644;2022-12-07T04:49:30;100482.72;;;-7.87;47.50
39051;BME280;24805;55.852;37.644;2022-12-07T04:54:32;100479.34;;;-7.89;47.81
39051;BME280;24805;55.852;37.644;2022-12-07T04:59:34;100495.69;;;-7.90;47.98
39051;BME280;24805;55.852;37.644;2022-12-07T05:04:42;100488.06;;;-7.95;47.87
39051;BME280;24805;55.852;37.644;2022-12-07T05:09:44;100484.78;;;-8.00;48.14
39051;BME280;24805;55.852;37.644;2022-12-07T05:14:47;100492.59;;;-8.05;48.42
39051;BME280;24805;55.852;37.644;2022-12-07T05:19:49;100496.03;;;-8.04;47.11
39051;BME280;24805;55.852;37.644;2022-12-07T05:24:51;100500.44;;;-8.09;48.06
39051;BME280;24805;55.852;37.644;2022-12-07T05:29:53;100490.34;;;-8.18;48.75
39051;BME280;24805;55.852;37.644;2022-12-07T05:34:55;100492.06;;;-8.19;48.04
39051;BME280;24805;55.852;37.644;2022-12-07T05:39:57;100488.75;;;-8.22;48.95
39051;BME280;24805;55.852;37.644;2022-12-07T05:44:59;100492.97;;;-8.20;49.53
39051;BME280;24805;55.852;37.644;2022-12-07T05:50:02;100491.44;;;-8.28;49.89
39051;BME280;24805;55.852;37.644;2022-12-07T05:55:05;100477.78;;;-8.30;49.96
39051;BME280;24805;55.852;37.644;2022-12-07T06:00:09;100480.19;;;-8.23;49.95
39051;BME280;24805;55.852;37.644;2022-12-07T06:05:13;100482.72;;;-8.21;50.14
39051;BME280;24805;55.852;37.644;2022-12-07T06:10:15;100472.31;;;-7.83;49.82
39051;BME280;24805;55.852;37.644;2022-12-07T06:15:17;100481.25;;;-7.02;49.67
39051;BME280;24805;55.852;37.644;2022-12-07T06:20:19;100479.56;;;-5.93;47.89
39051;BME280;24805;55.852;37.644;2022-12-07T06:25:21;100480.16;;;-4.88;46.33
39051;BME280;24805;55.852;37.644;2022-12-07T06:30:23;100464.97;;;-4.08;44.49
39051;BME280;24805;55.852;37.644;2022-12-07T06:35:25;100468.69;;;-3.53;45.06
39051;BME280;24805;55.852;37.644;2022-12-07T06:40:27;100442.94;;;-3.58;43.66
39051;BME280;24805;55.852;37.644;2022-12-07T06:45:29;100479.22;;;-2.98;42.43
39051;BME280;24805;55.852;37.644;2022-12-07T06:50:31;100489.22;;;-2.70;42.08
39051;BME280;24805;55.852;37.644;2022-12-07T06:55:33;100489.22;;;-2.52;41.65
39051;BME280;24805;55.852;37.644;2022-12-07T07:00:36;100476.41;;;-2.01;41.34
39051;BME280;24805;55.852;37.644;2022-12-07T07:05:38;100481.34;;;-2.14;41.08
39051;BME280;24805;55.852;37.644;2022-12-07T07:10:40;100473.69;;;-1.81;40.46
39051;BME280;24805;55.852;37.644;2022-12-07T07:15:44;100486.69;;;-1.64;40.37
39051;BME280;24805;55.852;37.644;2022-12-07T07:20:46;100477.31;;;-1.33;40.00
39051;BME280;24805;55.852;37.644;2022-12-07T07:25:48;100489.31;;;-0.65;38.71
39051;BME280;24805;55.852;37.644;2022-12-07T07:30:50;100476.31;;;-0.19;37.60
39051;BME280;24805;55.852;37.644;2022-12-07T07:35:53;100459.00;;;-0.05;37.30
39051;BME280;24805;55.852;37.644;2022-12-07T07:40:55;100447.28;;;-0.43;36.92
39051;BME280;24805;55.852;37.644;2022-12-07T07:45:57;100450.31;;;-0.05;37.16
39051;BME280;24805;55.852;37.644;2022-12-07T07:50:59;100461.00;;;0.20;36.07
39051;BME280;24805;55.852;37.644;2022-12-07T07:56:02;100445.31;;;0.06;35.43
39051;BME280;24805;55.852;37.644;2022-12-07T08:01:05;100459.56;;;0.45;34.94
39051;BME280;24805;55.852;37.644;2022-12-07T08:06:07;100420.81;;;0.39;34.59
39051;BME280;24805;55.852;37.644;2022-12-07T08:11:10;100447.84;;;0.66;34.09
39051;BME280;24805;55.852;37.644;2022-12-07T08:16:12;100436.59;;;0.80;34.37
39051;BME280;24805;55.852;37.644;2022-12-07T08:21:15;100435.38;;;0.57;34.02
39051;BME280;24805;55.852;37.644;2022-12-07T08:26:17;100426.41;;;0.61;34.50
39051;BME280;24805;55.852;37.644;2022-12-07T08:31:19;100422.59;;;0.95;34.54
39051;BME280;24805;55.852;37.644;2022-12-07T08:36:21;100425.28;;;0.65;33.63
39051;BME280;24805;55.852;37.644;2022-12-07T08:41:24;100421.84;;;0.64;34.16
39051;BME280;24805;55.852;37.644;2022-12-07T08:46:31;100435.44;;;1.12;34.40
39051;BME280;24805;55.852;37.644;2022-12-07T08:51:36;100435.28;;;1.42;32.52
39051;BME280;24805;55.852;37.644;2022-12-07T08:56:38;100427.84;;;1.36;32.74
39051;BME280;24805;55.852;37.644;2022-12-07T09:01:40;100413.88;;;1.50;31.78
39051;BME280;24805;55.852;37.644;2022-12-07T09:06:43;100415.19;;;1.57;31.97
39051;BME280;24805;55.852;37.644;2022-12-07T09:11:45;100406.53;;;1.42;31.82
39051;BME280;24805;55.852;37.644;2022-12-07T09:16:47;100410.16;;;1.54;31.20
39051;BME280;24805;55.852;37.644;2022-12-07T09:21:50;100411.66;;;1.44;31.39
39051;BME280;24805;55.852;37.644;2022-12-07T09:26:52;100390.97;;;1.26;31.67
39051;BME280;24805;55.852;37.644;2022-12-07T09:31:54;100382.72;;;1.20;31.35
39051;BME280;24805;55.852;37.644;2022-12-07T09:36:56;100359.88;;;1.36;31.47
39051;BME280;24805;55.852;37.644;2022-12-07T09:41:59;100355.97;;;1.56;31.05
39051;BME280;24805;55.852;37.644;2022-12-07T09:47:01;100364.38;;;1.73;30.99
39051;BME280;24805;55.852;37.644;2022-12-07T09:52:19;100392.25;;;1.60;31.13
39051;BME280;24805;55.852;37.644;2022-12-07T09:57:32;100365.13;;;1.49;31.44
39051;BME280;24805;55.852;37.644;2022-12-07T10:02:38;100355.31;;;1.92;30.34
39051;BME280;24805;55.852;37.644;2022-12-07T10:07:41;100323.28;;;2.01;30.21
39051;BME280;24805;55.852;37.644;2022-12-07T10:12:54;100335.03;;;2.33;29.66
39051;BME280;24805;55.852;37.644;2022-12-07T10:17:57;100319.72;;;2.53;29.42
39051;BME280;24805;55.852;37.644;2022-12-07T10:23:04;100340.59;;;2.91;29.01
39051;BME280;24805;55.852;37.644;2022-12-07T10:28:18;100345.31;;;2.86;29.04
39051;BME280;24805;55.852;37.644;2022-12-07T10:33:38;100362.34;;;3.40;29.94
39051;BME280;24805;55.852;37.644;2022-12-07T10:38:51;100343.84;;;2.94;28.96
39051;BME280;24805;55.852;37.644;2022-12-07T10:43:56;100313.81;;;2.74;29.10
39051;BME280;24805;55.852;37.644;2022-12-07T11:05:18;100303.38;;;1.07;30.90
39051;BME280;24805;55.852;37.644;2022-12-07T11:16:06;100283.69;;;1.67;30.43
39051;BME280;24805;55.852;37.644;2022-12-07T11:21:25;100266.50;;;1.63;30.38
39051;BME280;24805;55.852;37.644;2022-12-07T11:37:41;100274.22;;;0.45;31.74
39051;BME280;24805;55.852;37.644;2022-12-07T11:43:01;100281.31;;;0.28;31.98
39051;BME280;24805;55.852;37.644;2022-12-07T11:48:37;100269.78;;;0.18;32.87
39051;BME280;24805;55.852;37.644;2022-12-07T11:53:46;100272.41;;;0.18;32.49
39051;BME280;24805;55.852;37.644;2022-12-07T11:59:13;100260.56;;;0.13;32.79
39051;BME280;24805;55.852;37.644;2022-12-07T12:09:53;100247.56;;;-0.31;32.97
39051;BME280;24805;55.852;37.644;2022-12-07T12:15:20;100239.44;;;-0.85;34.26
39051;BME280;24805;55.852;37.644;2022-12-07T12:20:32;100242.59;;;-1.57;35.44
39051;BME280;24805;55.852;37.644;2022-12-07T12:25:42;100231.69;;;-2.13;36.37
39051;BME280;24805;55.852;37.644;2022-12-07T12:47:03;100233.28;;;-4.64;41.62
39051;BME280;24805;55.852;37.644;2022-12-07T13:03:29;100231.59;;;-5.72;43.87
39051;BME280;24805;55.852;37.644;2022-12-07T13:08:31;100240.53;;;-6.03;44.39
39051;BME280;24805;55.852;37.644;2022-12-07T13:13:36;100247.06;;;-6.17;45.13
39051;BME280;24805;55.852;37.644;2022-12-07T13:18:39;100224.38;;;-6.33;45.18
39051;BME280;24805;55.852;37.644;2022-12-07T13:39:45;100232.66;;;-6.73;47.68
39051;BME280;24805;55.852;37.644;2022-12-07T13:44:47;100225.13;;;-6.79;47.33
39051;BME280;24805;55.852;37.644;2022-12-07T13:49:52;100244.81;;;-6.76;47.86
39051;BME280;24805;55.852;37.644;2022-12-07T14:00:15;100231.44;;;-6.87;48.21
39051;BME280;24805;55.852;37.644;2022-12-07T14:05:33;100187.50;;;-7.11;48.04
39051;BME280;24805;55.852;37.644;2022-12-07T14:10:39;100229.22;;;-6.98;48.40
39051;BME280;24805;55.852;37.644;2022-12-07T14:15:41;100224.28;;;-7.04;48.48
39051;BME280;24805;55.852;37.644;2022-12-07T14:20:43;100216.63;;;-7.07;48.68
39051;BME280;24805;55.852;37.644;2022-12-07T14:25:50;100224.56;;;-7.13;48.33
39051;BME280;24805;55.852;37.644;2022-12-07T14:30:52;100215.50;;;-7.25;49.70
39051;BME280;24805;55.852;37.644;2022-12-07T14:35:55;100195.75;;;-7.26;49.13
39051;BME280;24805;55.852;37.644;2022-12-07T14:41:00;100199.28;;;-7.28;48.36
39051;BME280;24805;55.852;37.644;2022-12-07T14:46:20;100207.41;;;-7.41;49.35
39051;BME280;24805;55.852;37.644;2022-12-07T14:51:22;100207.59;;;-7.47;49.78
39051;BME280;24805;55.852;37.644;2022-12-07T14:56:45;100191.56;;;-7.56;50.93
39051;BME280;24805;55.852;37.644;2022-12-07T15:01:50;100207.19;;;-7.61;51.34
39051;BME280;24805;55.852;37.644;2022-12-07T15:06:58;100213.00;;;-7.56;49.35
39051;BME280;24805;55.852;37.644;2022-12-07T15:12:00;100214.16;;;-7.65;50.76
39051;BME280;24805;55.852;37.644;2022-12-07T15:17:02;100195.28;;;-7.65;51.53
39051;BME280;24805;55.852;37.644;2022-12-07T15:22:11;100198.66;;;-7.63;50.37
39051;BME280;24805;55.852;37.644;2022-12-07T15:27:13;100185.16;;;-7.71;51.79
39051;BME280;24805;55.852;37.644;2022-12-07T15:32:15;100187.78;;;-7.73;52.19
39051;BME280;24805;55.852;37.644;2022-12-07T15:37:17;100198.97;;;-7.74;52.25
39051;BME280;24805;55.852;37.644;2022-12-07T15:42:20;100196.94;;;-7.92;52.45
39051;BME280;24805;55.852;37.644;2022-12-07T15:47:23;100186.84;;;-7.70;52.05
39051;BME280;24805;55.852;37.644;2022-12-07T15:52:25;100175.72;;;-7.72;52.18
39051;BME280;24805;55.852;37.644;2022-12-07T15:57:27;100175.88;;;-7.77;52.63
39051;BME280;24805;55.852;37.644;2022-12-07T16:02:29;100162.16;;;-7.77;52.50
39051;BME280;24805;55.852;37.644;2022-12-07T16:07:37;100149.53;;;-7.85;53.40
39051;BME280;24805;55.852;37.644;2022-12-07T16:12:39;100159.78;;;-7.83;52.82
39051;BME280;24805;55.852;37.644;2022-12-07T16:17:41;100151.16;;;-7.82;52.42
39051;BME280;24805;55.852;37.644;2022-12-07T16:22:43;100167.56;;;-7.85;53.51
39051;BME280;24805;55.852;37.644;2022-12-07T16:27:45;100174.44;;;-7.85;53.00
39051;BME280;24805;55.852;37.644;2022-12-07T16:32:47;100163.25;;;-7.84;53.20
39051;BME280;24805;55.852;37.644;2022-12-07T16:37:49;100181.38;;;-7.87;53.68
39051;BME280;24805;55.852;37.644;2022-12-07T16:42:51;100152.22;;;-7.89;53.95
39051;BME280;24805;55.852;37.644;2022-12-07T16:47:53;100157.34;;;-7.88;53.52
39051;BME280;24805;55.852;37.644;2022-12-07T16:52:55;100132.56;;;-7.92;54.52
39051;BME280;24805;55.852;37.644;2022-12-07T16:57:57;100151.25;;;-7.85;53.49
39051;BME280;24805;55.852;37.644;2022-12-07T17:03:00;100143.53;;;-7.85;54.06
39051;BME280;24805;55.852;37.644;2022-12-07T17:08:02;100162.34;;;-7.83;53.73
39051;BME280;24805;55.852;37.644;2022-12-07T17:13:06;100146.94;;;-7.85;54.13
39051;BME280;24805;55.852;37.644;2022-12-07T17:18:35;100163.03;;;-7.78;53.98
39051;BME280;24805;55.852;37.644;2022-12-07T17:23:37;100156.31;;;-7.82;54.37
39051;BME280;24805;55.852;37.644;2022-12-07T17:28:39;100127.94;;;-7.81;54.38
39051;BME280;24805;55.852;37.644;2022-12-07T17:33:41;100119.41;;;-7.83;54.59
39051;BME280;24805;55.852;37.644;2022-12-07T17:38:44;100115.19;;;-7.85;53.86
39051;BME280;24805;55.852;37.644;2022-12-07T17:43:46;100122.75;;;-7.79;54.27
39051;BME280;24805;55.852;37.644;2022-12-07T17:48:48;100149.44;;;-7.82;54.61
39051;BME280;24805;55.852;37.644;2022-12-07T17:53:50;100112.53;;;-7.82;54.77
39051;BME280;24805;55.852;37.644;2022-12-07T17:58:52;100124.59;;;-7.84;54.87
39051;BME280;24805;55.852;37.644;2022-12-07T18:03:54;100119.63;;;-7.90;54.47
39051;BME280;24805;55.852;37.644;2022-12-07T18:08:57;100115.06;;;-7.81;55.22
39051;BME280;24805;55.852;37.644;2022-12-07T18:13:59;100108.41;;;-7.88;55.03
39051;BME280;24805;55.852;37.644;2022-12-07T18:19:03;100123.66;;;-7.82;53.90
39051;BME280;24805;55.852;37.644;2022-12-07T18:24:07;100114.25;;;-7.83;54.85
39051;BME280;24805;55.852;37.644;2022-12-07T18:29:14;100100.22;;;-8.01;55.04
39051;BME280;24805;55.852;37.644;2022-12-07T18:34:17;100098.09;;;-7.88;55.24
39051;BME280;24805;55.852;37.644;2022-12-07T18:39:20;100101.47;;;-7.86;54.55
39051;BME280;24805;55.852;37.644;2022-12-07T18:44:22;100089.44;;;-7.85;55.39
39051;BME280;24805;55.852;37.644;2022-12-07T18:49:24;100094.69;;;-7.88;55.23
39051;BME280;24805;55.852;37.644;2022-12-07T18:54:26;100073.97;;;-7.85;55.59
39051;BME280;24805;55.852;37.644;2022-12-07T18:59:28;100081.75;;;-7.87;55.47
39051;BME280;24805;55.852;37.644;2022-12-07T19:04:50;100117.06;;;-7.90;56.23
39051;BME280;24805;55.852;37.644;2022-12-07T19:09:52;100069.75;;;-7.88;55.19
39051;BME280;24805;55.852;37.644;2022-12-07T19:14:54;100073.41;;;-7.95;55.88
39051;BME280;24805;55.852;37.644;2022-12-07T19:19:56;100061.44;;;-7.96;56.09
39051;BME280;24805;55.852;37.644;2022-12-07T19:24:58;100054.44;;;-7.92;55.95
39051;BME280;24805;55.852;37.644;2022-12-07T19:30:01;100057.13;;;-7.95;55.86
39051;BME280;24805;55.852;37.644;2022-12-07T19:35:04;100045.03;;;-7.93;55.22
39051;BME280;24805;55.852;37.644;2022-12-07T19:40:07;100075.09;;;-7.94;55.87
39051;BME280;24805;55.852;37.644;2022-12-07T19:45:09;100052.06;;;-7.99;56.39
39051;BME280;24805;55.852;37.644;2022-12-07T19:50:11;100076.00;;;-7.95;55.71
39051;BME280;24805;55.852;37.644;2022-12-07T19:55:14;100070.84;;;-7.95;55.22
39051;BME280;24805;55.852;37.644;2022-12-07T20:00:16;100063.91;;;-7.93;56.79
39051;BME280;24805;55.852;37.644;2022-12-07T20:05:18;100066.50;;;-7.93;55.72
39051;BME280;24805;55.852;37.644;2022-12-07T20:10:20;100067.25;;;-7.89;56.81
39051;BME280;24805;55.852;37.644;2022-12-07T20:15:27;100068.09;;;-7.89;55.88
39051;BME280;24805;55.852;37.644;2022-12-07T20:20:29;100104.13;;;-7.89;56.65
39051;BME280;24805;55.852;37.644;2022-12-07T20:25:35;100086.06;;;-7.87;56.01
39051;BME280;24805;55.852;37.644;2022-12-07T20:30:37;100072.47;;;-7.92;56.27
39051;BME280;24805;55.852;37.644;2022-12-07T20:35:39;100051.69;;;-7.86;55.78
39051;BME280;24805;55.852;37.644;2022-12-07T20:40:46;100044.81;;;-7.86;56.77
39051;BME280;24805;55.852;37.644;2022-12-07T20:45:49;100077.63;;;-7.92;57.00
39051;BME280;24805;55.852;37.644;2022-12-07T20:50:51;100036.09;;;-7.82;55.80
39051;BME280;24805;55.852;37.644;2022-12-07T20:55:53;100070.41;;;-7.81;55.86
39051;BME280;24805;55.852;37.644;2022-12-07T21:01:01;100013.44;;;-7.99;56.76
39051;BME280;24805;55.852;37.644;2022-12-07T21:06:04;100069.66;;;-7.85;56.38
39051;BME280;24805;55.852;37.644;2022-12-07T21:11:07;100066.25;;;-7.85;56.57
39051;BME280;24805;55.852;37.644;2022-12-07T21:16:12;100027.09;;;-7.96;56.81
39051;BME280;24805;55.852;37.644;2022-12-07T21:21:16;100028.50;;;-7.86;57.24
39051;BME280;24805;55.852;37.644;2022-12-07T21:26:22;100031.75;;;-7.80;56.97
39051;BME280;24805;55.852;37.644;2022-12-07T21:31:24;100044.63;;;-7.80;56.58
39051;BME280;24805;55.852;37.644;2022-12-07T21:36:27;100020.69;;;-7.83;56.65
39051;BME280;24805;55.852;37.644;2022-12-07T21:41:32;99984.34;;;-8.01;56.71
39051;BME280;24805;55.852;37.644;2022-12-07T21:46:36;100023.31;;;-7.85;56.80
39051;BME280;24805;55.852;37.644;2022-12-07T21:51:40;100004.97;;;-7.76;56.24
39051;BME280;24805;55.852;37.644;2022-12-07T21:56:42;100004.06;;;-7.75;56.71
39051;BME280;24805;55.852;37.644;2022-12-07T22:01:46;100005.91;;;-7.78;55.95
39051;BME280;24805;55.852;37.644;2022-12-07T22:06:49;100010.84;;;-7.72;55.83
39051;BME280;24805;55.852;37.644;2022-12-07T22:11:52;100021.25;;;-7.75;56.34
39051;BME280;24805;55.852;37.644;2022-12-07T22:16:54;99985.00;;;-7.69;55.81
39051;BME280;24805;55.852;37.644;2022-12-07T22:21:56;100030.78;;;-7.77;56.53
39051;BME280;24805;55.852;37.644;2022-12-07T22:26:58;100004.03;;;-7.73;56.75
39051;BME280;24805;55.852;37.644;2022-12-07T22:32:00;100011.66;;;-7.70;57.79
39051;BME280;24805;55.852;37.644;2022-12-07T22:37:22;99980.44;;;-7.61;56.93
39051;BME280;24805;55.852;37.644;2022-12-07T22:42:24;100019.97;;;-7.62;57.43
39051;BME280;24805;55.852;37.644;2022-12-07T22:47:27;100013.88;;;-7.59;57.71
39051;BME280;24805;55.852;37.644;2022-12-07T22:52:29;99985.31;;;-7.53;58.18
39051;BME280;24805;55.852;37.644;2022-12-07T22:57:31;99970.59;;;-7.50;59.02
39051;BME280;24805;55.852;37.644;2022-12-07T23:02:33;99985.78;;;-7.42;58.42
39051;BME280;24805;55.852;37.644;2022-12-07T23:07:35;99947.00;;;-7.39;57.99
39051;BME280;24805;55.852;37.644;2022-12-07T23:12:37;99923.09;;;-7.43;58.21
39051;BME280;24805;55.852;37.644;2022-12-07T23:17:58;99919.72;;;-7.45;59.09
39051;BME280;24805;55.852;37.644;2022-12-07T23:23:00;99962.53;;;-7.17;58.53
39051;BME280;24805;55.852;37.644;2022-12-07T23:28:02;99960.97;;;-7.21;58.38
39051;BME280;24805;55.852;37.644;2022-12-07T23:33:04;99956.63;;;-7.19;58.76
39051;BME280;24805;55.852;37.644;2022-12-07T23:38:06;99946.09;;;-7.15;58.66
39051;BME280;24805;55.852;37.644;2022-12-07T23:43:08;99931.47;;;-7.14;58.31
39051;BME280;24805;55.852;37.644;2022-12-07T23:48:10;99935.63;;;-7.10;58.85
39051;BME280;24805;55.852;37.644;2022-12-07T23:53:12;99938.88;;;-7.05;58.96
39051;BME280;24805;55.852;37.644;2022-12-07T23:58:14;99930.41;;;-7.09;58.85
